Time;durP1;ratioP1;P1;durP2;ratioP2;P2;SDS_P1;SDS_P2;PMS_P1;PMS_P2;Temp;Humidity;BMP_temperature;BMP_pressure;BME280_temperature;BME280_humidity;BME280_pressure;Samples;Min_cycle;Max_cycle;Signal;HPM_P1;HPM_P2
2023/12/04 00:01:34;;;;;;;40.58;19.33;;;;;;;;;;5068681;28;20048;-68
2023/12/04 00:04:00;;;;;;;41.17;19.05;;;;;;;;;;5078274;28;20032;-68
2023/12/04 00:06:26;;;;;;;39.85;19.17;;;;;;;;;;5076766;28;20469;-68
2023/12/04 00:08:52;;;;;;;41.80;19.02;;;;;;;;;;5075817;28;20040;-68
2023/12/04 00:11:18;;;;;;;35.05;17.67;;;;;;;;;;5074150;28;20047;-68
2023/12/04 00:13:44;;;;;;;37.00;18.33;;;;;;;;;;5078552;28;20036;-68
2023/12/04 00:16:10;;;;;;;37.20;18.23;;;;;;;;;;5081019;28;20400;-68
2023/12/04 00:18:36;;;;;;;38.38;19.08;;;;;;;;;;5074411;28;20040;-67
2023/12/04 00:21:02;;;;;;;41.28;19.45;;;;;;;;;;5079097;28;20477;-67
2023/12/04 00:23:28;;;;;;;40.42;18.58;;;;;;;;;;5075703;28;20114;-67
2023/12/04 00:25:55;;;;;;;37.80;19.02;;;;;;;;;;5079339;28;20045;-67
2023/12/04 00:28:21;;;;;;;39.00;19.45;;;;;;;;;;5095295;22;20047;-65
2023/12/04 00:30:48;;;;;;;39.63;17.85;;;;;;;;;;5099432;28;20036;-65
2023/12/04 00:33:14;;;;;;;39.65;18.60;;;;;;;;;;5097471;28;20126;-65
2023/12/04 00:35:40;;;;;;;38.22;18.50;;;;;;;;;;5099193;28;20135;-65
2023/12/04 00:38:06;;;;;;;39.97;18.27;;;;;;;;;;5099457;28;20042;-66
2023/12/04 00:40:32;;;;;;;33.78;16.63;;;;;;;;;;5095722;28;20126;-65
2023/12/04 00:42:58;;;;;;;36.60;17.60;;;;;;;;;;5100392;28;20048;-65
2023/12/04 00:45:24;;;;;;;37.58;16.98;;;;;;;;;;5098747;28;20599;-65
2023/12/04 00:47:50;;;;;;;39.13;18.58;;;;;;;;;;5098592;28;20036;-66
2023/12/04 00:50:16;;;;;;;39.33;18.00;;;;;;;;;;5095449;28;20050;-65
2023/12/04 00:52:42;;;;;;;36.38;17.77;;;;;;;;;;5097779;28;20044;-65
2023/12/04 00:55:08;;;;;;;38.10;17.83;;;;;;;;;;5101158;28;20065;-65
2023/12/04 00:57:34;;;;;;;40.08;18.20;;;;;;;;;;5093020;28;20085;-65
2023/12/04 01:00:00;;;;;;;36.63;17.50;;;;;;;;;;5096371;28;20040;-67
2023/12/04 01:02:26;;;;;;;37.28;18.00;;;;;;;;;;5099349;28;20043;-65
2023/12/04 01:04:52;;;;;;;38.85;17.67;;;;;;;;;;5090742;28;20388;-66
2023/12/04 01:07:18;;;;;;;36.20;17.00;;;;;;;;;;5099820;28;20066;-65
2023/12/04 01:09:44;;;;;;;35.45;17.98;;;;;;;;;;5079868;28;20044;-67
2023/12/04 01:12:10;;;;;;;34.13;15.52;;;;;;;;;;5090664;28;20043;-65
2023/12/04 01:14:38;;;;;;;35.28;16.83;;;;;;;;;;5111851;28;20066;-65
2023/12/04 01:17:04;;;;;;;34.65;16.08;;;;;;;;;;5109980;28;20051;-65
2023/12/04 01:19:30;;;;;;;40.42;17.95;;;;;;;;;;5092277;28;20048;-65
2023/12/04 01:21:56;;;;;;;34.20;17.48;;;;;;;;;;5093526;28;20449;-65
2023/12/04 01:24:22;;;;;;;38.88;17.95;;;;;;;;;;5105294;28;20035;-65
2023/12/04 01:26:48;;;;;;;39.90;17.92;;;;;;;;;;5100367;28;20035;-66
2023/12/04 01:29:14;;;;;;;37.53;17.23;;;;;;;;;;5108418;28;20122;-65
2023/12/04 01:31:40;;;;;;;38.80;17.38;;;;;;;;;;5104153;28;20456;-66
2023/12/04 01:34:06;;;;;;;35.03;17.02;;;;;;;;;;5101602;28;20044;-65
2023/12/04 01:36:32;;;;;;;35.88;18.00;;;;;;;;;;5100762;28;20122;-65
2023/12/04 01:38:58;;;;;;;38.30;16.75;;;;;;;;;;5109397;28;20132;-67
2023/12/04 01:41:24;;;;;;;35.55;18.02;;;;;;;;;;5110350;28;20051;-67
2023/12/04 01:43:50;;;;;;;33.83;16.58;;;;;;;;;;5107775;28;20527;-67
2023/12/04 01:46:17;;;;;;;34.83;17.85;;;;;;;;;;5111907;28;20578;-67
2023/12/04 01:48:45;;;;;;;38.30;16.58;;;;;;;;;;5094737;28;20060;-66
2023/12/04 01:51:12;;;;;;;36.75;17.27;;;;;;;;;;5086222;28;20441;-66
2023/12/04 01:53:39;;;;;;;38.15;16.88;;;;;;;;;;5107130;28;20084;-67
2023/12/04 01:56:06;;;;;;;34.67;16.17;;;;;;;;;;5104663;28;20075;-66
2023/12/04 01:58:32;;;;;;;34.03;16.13;;;;;;;;;;5104403;28;20031;-66
2023/12/04 02:00:58;;;;;;;32.95;16.33;;;;;;;;;;5103013;28;20466;-65
2023/12/04 02:03:24;;;;;;;36.08;17.55;;;;;;;;;;5104664;28;20043;-66
2023/12/04 02:05:52;;;;;;;35.83;16.92;;;;;;;;;;5099908;28;20050;-65
2023/12/04 02:08:19;;;;;;;34.92;16.55;;;;;;;;;;5110063;28;20051;-67
2023/12/04 02:10:45;;;;;;;35.85;17.17;;;;;;;;;;5106136;28;20369;-66
2023/12/04 02:13:11;;;;;;;36.10;16.70;;;;;;;;;;5100974;28;20039;-66
2023/12/04 02:15:37;;;;;;;36.42;17.17;;;;;;;;;;5099737;28;20035;-66
2023/12/04 02:18:03;;;;;;;33.75;16.83;;;;;;;;;;5110083;28;20402;-66
2023/12/04 02:20:35;;;;;;;34.70;16.63;;;;;;;;;;5103453;28;20070;-65
2023/12/04 02:23:02;;;;;;;34.33;16.58;;;;;;;;;;5106398;28;20032;-66
2023/12/04 02:25:29;;;;;;;32.20;15.82;;;;;;;;;;5114212;28;20510;-66
2023/12/04 02:27:56;;;;;;;33.90;15.85;;;;;;;;;;5111827;28;20100;-69
2023/12/04 02:30:23;;;;;;;35.65;17.60;;;;;;;;;;5102070;28;20119;-65
2023/12/04 02:32:50;;;;;;;35.35;16.55;;;;;;;;;;5112087;28;20116;-66
2023/12/04 02:35:23;;;;;;;34.60;16.80;;;;;;;;;;5113952;28;20075;-65
2023/12/04 02:37:50;;;;;;;35.70;16.20;;;;;;;;;;5104734;28;20042;-66
2023/12/04 02:40:16;;;;;;;33.63;16.95;;;;;;;;;;5103957;28;20045;-65
2023/12/04 02:42:42;;;;;;;33.70;16.17;;;;;;;;;;5100905;28;20051;-65
2023/12/04 02:45:08;;;;;;;32.08;16.33;;;;;;;;;;5091136;28;20044;-66
2023/12/04 02:47:34;;;;;;;31.30;16.33;;;;;;;;;;5096138;28;20040;-66
2023/12/04 02:50:00;;;;;;;35.03;15.75;;;;;;;;;;5103789;28;20040;-66
2023/12/04 02:52:26;;;;;;;30.48;15.25;;;;;;;;;;5114356;28;20078;-66
2023/12/04 02:54:52;;;;;;;35.15;16.35;;;;;;;;;;5093599;28;20457;-65
2023/12/04 02:57:18;;;;;;;32.83;16.30;;;;;;;;;;5107739;28;20043;-66
2023/12/04 02:59:44;;;;;;;34.00;16.83;;;;;;;;;;5105306;28;20079;-67
2023/12/04 03:02:10;;;;;;;29.40;15.07;;;;;;;;;;5094361;28;20437;-66
2023/12/04 03:04:36;;;;;;;34.53;15.45;;;;;;;;;;5083791;28;20040;-67
2023/12/04 03:07:02;;;;;;;33.83;16.35;;;;;;;;;;5093356;28;20693;-68
2023/12/04 03:09:28;;;;;;;33.90;15.55;;;;;;;;;;5095817;28;20131;-65
2023/12/04 03:11:54;;;;;;;28.75;14.57;;;;;;;;;;5102998;28;20130;-65
2023/12/04 03:14:20;;;;;;;30.92;15.07;;;;;;;;;;5096275;28;20044;-65
2023/12/04 03:16:46;;;;;;;29.20;14.63;;;;;;;;;;5096065;28;20044;-65
2023/12/04 03:19:12;;;;;;;28.67;14.43;;;;;;;;;;5108519;28;20035;-65
2023/12/04 03:21:38;;;;;;;30.85;14.68;;;;;;;;;;5099191;28;20044;-65
2023/12/04 03:24:04;;;;;;;34.15;15.10;;;;;;;;;;5095528;28;20395;-65
2023/12/04 03:26:30;;;;;;;34.75;14.73;;;;;;;;;;5099738;28;20035;-65
2023/12/04 03:28:56;;;;;;;35.05;15.65;;;;;;;;;;5091725;28;20064;-66
2023/12/04 03:31:23;;;;;;;26.52;14.18;;;;;;;;;;5093657;28;20108;-65
2023/12/04 03:33:49;;;;;;;30.33;14.82;;;;;;;;;;5075177;28;20131;-66
2023/12/04 03:36:15;;;;;;;31.40;15.40;;;;;;;;;;5099304;28;20122;-66
2023/12/04 03:38:41;;;;;;;32.80;14.82;;;;;;;;;;5094820;28;20051;-67
2023/12/04 03:41:14;;;;;;;28.15;13.93;;;;;;;;;;5103153;28;20051;-66
2023/12/04 03:43:41;;;;;;;31.13;15.05;;;;;;;;;;5112849;28;20035;-65
2023/12/04 03:46:07;;;;;;;30.15;14.00;;;;;;;;;;5109389;28;20038;-65
2023/12/04 03:48:32;;;;;;;33.55;15.25;;;;;;;;;;5108964;28;20043;-65
2023/12/04 03:50:59;;;;;;;31.33;14.73;;;;;;;;;;5092507;28;20495;-66
2023/12/04 03:53:25;;;;;;;30.95;13.77;;;;;;;;;;5102190;28;20051;-67
2023/12/04 03:55:51;;;;;;;30.60;14.00;;;;;;;;;;5108540;28;20512;-65
2023/12/04 03:58:17;;;;;;;32.60;15.55;;;;;;;;;;5103558;28;20047;-66
2023/12/04 04:00:43;;;;;;;31.10;14.63;;;;;;;;;;5105764;28;20042;-65
2023/12/04 04:03:12;;;;;;;30.52;15.10;;;;;;;;;;5107751;28;20058;-66
2023/12/04 04:05:38;;;;;;;30.63;15.20;;;;;;;;;;5102009;28;20043;-65
2023/12/04 04:08:08;;;;;;;29.98;14.00;;;;;;;;;;5104724;28;20418;-66
2023/12/04 04:10:34;;;;;;;29.95;14.40;;;;;;;;;;5099592;28;20047;-65
2023/12/04 04:13:00;;;;;;;32.05;14.63;;;;;;;;;;5097671;28;20040;-67
2023/12/04 04:15:26;;;;;;;27.30;14.23;;;;;;;;;;5097425;28;20053;-66
2023/12/04 04:17:52;;;;;;;30.20;14.45;;;;;;;;;;5094742;28;20462;-66
2023/12/04 04:20:19;;;;;;;31.85;15.23;;;;;;;;;;5104506;28;20118;-67
2023/12/04 04:22:46;;;;;;;27.38;13.95;;;;;;;;;;5098698;28;20123;-68
2023/12/04 04:25:12;;;;;;;30.95;14.48;;;;;;;;;;5102340;28;20079;-65
2023/12/04 04:27:38;;;;;;;33.25;15.07;;;;;;;;;;5074252;28;20040;-65
2023/12/04 04:30:05;;;;;;;29.27;14.40;;;;;;;;;;5094627;28;20040;-65
2023/12/04 04:32:31;;;;;;;29.27;14.00;;;;;;;;;;5094085;28;20043;-67
2023/12/04 04:34:57;;;;;;;29.95;14.88;;;;;;;;;;5104663;28;20079;-66
2023/12/04 04:37:23;;;;;;;28.65;14.52;;;;;;;;;;5097482;28;20656;-66
2023/12/04 04:39:49;;;;;;;29.50;13.93;;;;;;;;;;5100659;28;20089;-66
2023/12/04 04:42:15;;;;;;;29.02;14.40;;;;;;;;;;5099507;28;20061;-67
2023/12/04 04:44:41;;;;;;;28.13;14.55;;;;;;;;;;5100318;28;20043;-67
2023/12/04 04:47:07;;;;;;;28.05;14.45;;;;;;;;;;5108717;28;20036;-67
2023/12/04 04:49:33;;;;;;;30.58;14.18;;;;;;;;;;5098716;28;20047;-67
2023/12/04 04:51:59;;;;;;;25.30;12.90;;;;;;;;;;5092048;28;20040;-67
2023/12/04 04:54:25;;;;;;;26.58;13.35;;;;;;;;;;5105727;28;20071;-65
2023/12/04 04:56:51;;;;;;;28.30;14.05;;;;;;;;;;5111088;28;20685;-65
2023/12/04 04:59:17;;;;;;;27.15;13.65;;;;;;;;;;5101284;28;20032;-68
2023/12/04 05:01:43;;;;;;;28.67;14.10;;;;;;;;;;5088488;28;20042;-66
2023/12/04 05:04:09;;;;;;;27.13;13.35;;;;;;;;;;5092279;28;20081;-67
2023/12/04 05:06:35;;;;;;;29.10;14.07;;;;;;;;;;5085677;28;20036;-66
2023/12/04 05:09:01;;;;;;;29.02;14.25;;;;;;;;;;5089602;28;20038;-66
2023/12/04 05:11:27;;;;;;;29.48;13.82;;;;;;;;;;5086632;28;20111;-67
2023/12/04 05:13:53;;;;;;;27.48;13.77;;;;;;;;;;5093691;28;20132;-65
2023/12/04 05:16:19;;;;;;;29.40;13.40;;;;;;;;;;5097774;28;20407;-65
2023/12/04 05:18:45;;;;;;;24.63;12.70;;;;;;;;;;5103671;28;20054;-66
2023/12/04 05:21:11;;;;;;;27.52;14.18;;;;;;;;;;5092985;28;20034;-65
2023/12/04 05:23:37;;;;;;;29.00;13.40;;;;;;;;;;5093096;28;20066;-66
2023/12/04 05:26:04;;;;;;;27.52;13.30;;;;;;;;;;5096761;28;20415;-65
2023/12/04 05:28:30;;;;;;;25.98;12.95;;;;;;;;;;5093641;28;20074;-65
2023/12/04 05:30:56;;;;;;;26.25;12.75;;;;;;;;;;5087511;28;20583;-66
2023/12/04 05:33:22;;;;;;;30.92;13.82;;;;;;;;;;5094308;28;20039;-65
2023/12/04 05:35:50;;;;;;;29.60;14.32;;;;;;;;;;5091248;28;20093;-65
2023/12/04 05:38:16;;;;;;;32.95;14.20;;;;;;;;;;5093743;28;20095;-67
2023/12/04 05:40:42;;;;;;;26.23;12.68;;;;;;;;;;5098522;28;20048;-65
2023/12/04 05:43:08;;;;;;;25.83;13.55;;;;;;;;;;5101690;28;20034;-65
2023/12/04 05:45:34;;;;;;;25.58;13.32;;;;;;;;;;5100059;28;20040;-66
2023/12/04 05:48:00;;;;;;;28.95;14.45;;;;;;;;;;5095171;28;20044;-67
2023/12/04 05:50:26;;;;;;;28.42;14.35;;;;;;;;;;5090950;28;20044;-65
2023/12/04 05:52:52;;;;;;;25.75;13.20;;;;;;;;;;5095788;28;20480;-65
2023/12/04 05:55:20;;;;;;;32.10;14.07;;;;;;;;;;5093853;28;20040;-65
2023/12/04 05:57:46;;;;;;;26.33;13.52;;;;;;;;;;5087915;28;20123;-65
2023/12/04 06:00:12;;;;;;;26.52;13.45;;;;;;;;;;5098399;28;20036;-66
2023/12/04 06:02:45;;;;;;;26.40;13.73;;;;;;;;;;5097761;28;20028;-65
2023/12/04 06:05:11;;;;;;;28.65;13.23;;;;;;;;;;5092028;28;20043;-65
2023/12/04 06:07:37;;;;;;;25.80;14.32;;;;;;;;;;5089273;28;20441;-65
2023/12/04 06:10:08;;;;;;;23.45;13.00;;;;;;;;;;5100793;28;20442;-67
2023/12/04 06:12:34;;;;;;;25.20;12.82;;;;;;;;;;5099216;28;20048;-66
2023/12/04 06:15:00;;;;;;;24.98;12.10;;;;;;;;;;5098781;28;20508;-69
2023/12/04 06:17:26;;;;;;;27.50;13.52;;;;;;;;;;5098526;28;20048;-67
2023/12/04 06:19:53;;;;;;;26.15;12.77;;;;;;;;;;5098201;28;20040;-67
2023/12/04 06:22:21;;;;;;;22.90;12.63;;;;;;;;;;5097537;28;20040;-66
2023/12/04 06:24:47;;;;;;;29.42;13.88;;;;;;;;;;5098074;28;20054;-65
2023/12/04 06:27:18;;;;;;;28.02;12.95;;;;;;;;;;5099888;28;20039;-66
2023/12/04 06:29:45;;;;;;;27.75;13.73;;;;;;;;;;5101694;22;20045;-70
2023/12/04 06:32:11;;;;;;;24.45;13.00;;;;;;;;;;5047039;28;20515;-72
2023/12/04 06:34:38;;;;;;;21.23;11.63;;;;;;;;;;5050006;28;20053;-72
2023/12/04 06:37:04;;;;;;;24.27;12.55;;;;;;;;;;5043407;28;20048;-72
2023/12/04 06:39:33;;;;;;;24.70;11.95;;;;;;;;;;5034405;28;20094;-72
2023/12/04 06:42:00;;;;;;;24.13;12.65;;;;;;;;;;5033046;28;20415;-72
2023/12/04 06:44:26;;;;;;;21.73;11.38;;;;;;;;;;5033049;28;20080;-72
2023/12/04 06:46:52;;;;;;;25.00;12.48;;;;;;;;;;5031758;28;20048;-72
2023/12/04 06:49:19;;;;;;;29.88;13.63;;;;;;;;;;5028371;28;20046;-72
2023/12/04 06:51:45;;;;;;;25.35;12.55;;;;;;;;;;5025814;28;20491;-72
2023/12/04 06:54:13;;;;;;;26.85;13.30;;;;;;;;;;5022569;28;20048;-72
2023/12/04 06:56:39;;;;;;;24.50;13.13;;;;;;;;;;5030729;28;20492;-72
2023/12/04 06:59:05;;;;;;;27.52;12.77;;;;;;;;;;5028897;28;20052;-72
2023/12/04 07:01:31;;;;;;;23.77;12.60;;;;;;;;;;5028304;28;20033;-72
2023/12/04 07:03:57;;;;;;;24.67;12.55;;;;;;;;;;5031090;28;20037;-72
2023/12/04 07:06:24;;;;;;;24.02;11.75;;;;;;;;;;5032540;28;20045;-72
2023/12/04 07:08:50;;;;;;;28.17;13.63;;;;;;;;;;5033594;28;20045;-72
2023/12/04 07:11:16;;;;;;;24.70;12.88;;;;;;;;;;5027993;28;20049;-72
2023/12/04 07:13:42;;;;;;;27.25;12.43;;;;;;;;;;5032777;28;20037;-72
2023/12/04 07:16:08;;;;;;;24.88;12.60;;;;;;;;;;5033496;28;20038;-72
2023/12/04 07:18:34;;;;;;;28.27;12.57;;;;;;;;;;5032283;28;20037;-72
2023/12/04 07:21:01;;;;;;;23.10;12.50;;;;;;;;;;5033425;28;20033;-72
2023/12/04 07:23:26;;;;;;;23.15;12.32;;;;;;;;;;5031686;28;20041;-72
2023/12/04 07:25:53;;;;;;;23.67;12.40;;;;;;;;;;5026742;28;20030;-72
2023/12/04 07:28:19;;;;;;;26.33;12.82;;;;;;;;;;5033450;28;20037;-72
2023/12/04 07:30:46;;;;;;;25.92;13.13;;;;;;;;;;5030371;28;20046;-72
2023/12/04 07:33:12;;;;;;;27.17;12.80;;;;;;;;;;5029599;28;20052;-72
2023/12/04 07:35:38;;;;;;;22.73;12.00;;;;;;;;;;5030384;28;20034;-72
2023/12/04 07:38:04;;;;;;;25.50;12.95;;;;;;;;;;5028285;28;20044;-72
2023/12/04 07:40:30;;;;;;;24.23;11.85;;;;;;;;;;5032001;28;20120;-72
2023/12/04 07:42:56;;;;;;;27.10;13.40;;;;;;;;;;5030577;28;20050;-72
2023/12/04 07:45:22;;;;;;;26.73;12.15;;;;;;;;;;5032687;28;20435;-72
2023/12/04 07:47:48;;;;;;;24.52;11.80;;;;;;;;;;5033081;28;20381;-72
2023/12/04 07:50:14;;;;;;;25.55;12.43;;;;;;;;;;5031433;28;20112;-72
2023/12/04 07:52:40;;;;;;;25.17;13.18;;;;;;;;;;5014111;28;20132;-72
2023/12/04 07:55:06;;;;;;;24.13;12.50;;;;;;;;;;5030301;28;20124;-72
2023/12/04 07:57:32;;;;;;;24.23;11.73;;;;;;;;;;5029438;28;20054;-72
2023/12/04 07:59:59;;;;;;;22.58;12.55;;;;;;;;;;5033821;28;20532;-73
2023/12/04 08:02:24;;;;;;;26.23;12.98;;;;;;;;;;5030399;28;20124;-71
2023/12/04 08:04:50;;;;;;;21.83;11.50;;;;;;;;;;5030969;28;20112;-72
2023/12/04 08:07:16;;;;;;;23.35;12.40;;;;;;;;;;5030474;28;20091;-72
2023/12/04 08:09:42;;;;;;;23.27;11.73;;;;;;;;;;5031393;28;20037;-71
2023/12/04 08:12:08;;;;;;;22.27;12.00;;;;;;;;;;5032657;28;20037;-72
2023/12/04 08:14:34;;;;;;;23.50;11.40;;;;;;;;;;5032483;28;20041;-72
2023/12/04 08:17:00;;;;;;;21.17;11.38;;;;;;;;;;5030762;28;20034;-72
2023/12/04 08:19:26;;;;;;;22.10;11.43;;;;;;;;;;5012859;28;20064;-72
2023/12/04 08:21:52;;;;;;;22.45;10.40;;;;;;;;;;5031982;28;20167;-72
2023/12/04 08:24:18;;;;;;;21.90;11.23;;;;;;;;;;5035304;28;20036;-71
2023/12/04 08:26:45;;;;;;;20.00;11.10;;;;;;;;;;5032413;28;20045;-71
2023/12/04 08:29:12;;;;;;;19.95;10.43;;;;;;;;;;5027816;28;20040;-71
2023/12/04 08:31:37;;;;;;;19.55;10.48;;;;;;;;;;5026618;28;20053;-73
2023/12/04 08:34:04;;;;;;;19.13;10.90;;;;;;;;;;5029055;28;20034;-73
2023/12/04 08:36:30;;;;;;;20.77;10.63;;;;;;;;;;5031516;28;20041;-73
2023/12/04 08:38:56;;;;;;;22.55;11.32;;;;;;;;;;5030392;28;20096;-72
2023/12/04 08:41:22;;;;;;;18.13;9.48;;;;;;;;;;5026472;28;20049;-72
2023/12/04 08:43:48;;;;;;;16.27;9.75;;;;;;;;;;5031049;28;20029;-72
2023/12/04 08:46:14;;;;;;;21.58;11.23;;;;;;;;;;5029934;28;20045;-72
2023/12/04 08:48:41;;;;;;;19.92;10.73;;;;;;;;;;5034105;28;20128;-73
2023/12/04 08:51:08;;;;;;;20.15;9.48;;;;;;;;;;5025025;28;20468;-72
2023/12/04 08:53:34;;;;;;;19.00;10.95;;;;;;;;;;5030671;28;20479;-72
2023/12/04 08:56:00;;;;;;;18.73;9.82;;;;;;;;;;5031310;28;20510;-72
2023/12/04 08:58:26;;;;;;;17.35;9.77;;;;;;;;;;5033903;28;20081;-72
2023/12/04 09:00:52;;;;;;;18.48;9.43;;;;;;;;;;5030131;28;20068;-72
2023/12/04 09:03:20;;;;;;;17.33;10.02;;;;;;;;;;5033423;28;20037;-72
2023/12/04 09:05:49;;;;;;;18.77;9.13;;;;;;;;;;5029458;28;20148;-72
2023/12/04 09:08:15;;;;;;;16.30;9.50;;;;;;;;;;5032295;28;20057;-72
2023/12/04 09:10:41;;;;;;;17.92;9.10;;;;;;;;;;5022951;28;20057;-72
2023/12/04 09:13:07;;;;;;;16.30;9.00;;;;;;;;;;5026679;28;20029;-72
2023/12/04 09:15:33;;;;;;;16.88;9.38;;;;;;;;;;5027154;28;20049;-72
2023/12/04 09:17:59;;;;;;;16.55;9.43;;;;;;;;;;5029380;28;20092;-72
2023/12/04 09:20:25;;;;;;;16.17;9.70;;;;;;;;;;5025903;28;20510;-73
2023/12/04 09:22:51;;;;;;;17.02;9.00;;;;;;;;;;5031120;28;20041;-73
2023/12/04 09:25:18;;;;;;;17.40;8.93;;;;;;;;;;5029445;28;20045;-73
2023/12/04 09:27:44;;;;;;;20.05;9.77;;;;;;;;;;5017414;28;20758;-73
2023/12/04 09:30:10;;;;;;;16.08;8.77;;;;;;;;;;5026830;28;20041;-73
2023/12/04 09:32:36;;;;;;;18.45;9.43;;;;;;;;;;5033050;28;20069;-73
2023/12/04 09:35:02;;;;;;;17.08;9.77;;;;;;;;;;5027140;28;20533;-73
2023/12/04 09:37:28;;;;;;;16.67;9.48;;;;;;;;;;5031711;28;20096;-72
2023/12/04 09:39:54;;;;;;;17.13;9.15;;;;;;;;;;5030459;28;20083;-72
2023/12/04 09:42:20;;;;;;;15.73;8.80;;;;;;;;;;5031077;28;20049;-72
2023/12/04 09:44:49;;;;;;;14.38;8.25;;;;;;;;;;5031894;28;20042;-72
2023/12/04 09:47:17;;;;;;;16.98;8.77;;;;;;;;;;5029237;28;20392;-72
2023/12/04 09:49:43;;;;;;;14.88;7.93;;;;;;;;;;5029938;28;20080;-72
2023/12/04 09:52:09;;;;;;;14.38;7.72;;;;;;;;;;5031083;28;20487;-72
2023/12/04 09:54:36;;;;;;;14.93;8.70;;;;;;;;;;5030263;28;20052;-72
2023/12/04 09:57:03;;;;;;;15.63;7.97;;;;;;;;;;5029906;28;20087;-72
2023/12/04 09:59:30;;;;;;;14.20;8.40;;;;;;;;;;5030294;28;20124;-72
2023/12/04 10:01:56;;;;;;;14.15;8.15;;;;;;;;;;5028195;28;20037;-72
2023/12/04 10:04:22;;;;;;;15.52;9.13;;;;;;;;;;5029923;28;20069;-72
2023/12/04 10:06:50;;;;;;;15.05;8.43;;;;;;;;;;5030313;28;20029;-72
2023/12/04 10:09:17;;;;;;;15.02;8.70;;;;;;;;;;5027056;28;20531;-72
2023/12/04 10:11:44;;;;;;;13.63;8.27;;;;;;;;;;5032670;28;20045;-72
2023/12/04 10:14:17;;;;;;;13.90;8.73;;;;;;;;;;5028468;28;20069;-72
2023/12/04 10:16:44;;;;;;;16.88;8.43;;;;;;;;;;5026400;28;20100;-72
2023/12/04 10:19:17;;;;;;;16.27;8.65;;;;;;;;;;5028328;28;20100;-72
2023/12/04 10:21:44;;;;;;;13.30;8.10;;;;;;;;;;5026296;28;20083;-72
2023/12/04 10:24:10;;;;;;;14.00;8.38;;;;;;;;;;5030555;28;20574;-72
2023/12/04 10:26:35;;;;;;;15.82;7.90;;;;;;;;;;5029598;28;20038;-72
2023/12/04 10:29:03;;;;;;;12.73;7.75;;;;;;;;;;5029596;28;20060;-72
2023/12/04 10:31:33;;;;;;;13.63;8.07;;;;;;;;;;5027275;28;20050;-72
2023/12/04 10:33:59;;;;;;;13.43;7.67;;;;;;;;;;5027475;28;20041;-72
2023/12/04 10:36:25;;;;;;;50.25;23.13;;;;;;;;;;5030918;28;20299;-72
2023/12/04 10:39:00;;;;;;;14.65;8.77;;;;;;;;;;5030876;28;20033;-71
2023/12/04 10:41:27;;;;;;;12.23;7.80;;;;;;;;;;5034523;28;20049;-71
2023/12/04 10:43:53;;;;;;;13.75;7.03;;;;;;;;;;5034056;28;20126;-71
2023/12/04 10:46:20;;;;;;;13.55;7.68;;;;;;;;;;5033070;28;20147;-71
2023/12/04 10:48:47;;;;;;;13.13;7.95;;;;;;;;;;5027734;28;20045;-71
2023/12/04 10:51:14;;;;;;;12.00;7.13;;;;;;;;;;5029179;28;20077;-71
2023/12/04 10:53:42;;;;;;;13.82;8.18;;;;;;;;;;5029452;28;20041;-71
2023/12/04 10:56:10;;;;;;;11.57;7.10;;;;;;;;;;5033245;28;20041;-71
2023/12/04 10:58:40;;;;;;;11.48;6.95;;;;;;;;;;5030047;28;20037;-72
2023/12/04 11:01:08;;;;;;;12.15;7.53;;;;;;;;;;5029676;28;20037;-72
2023/12/04 11:03:42;;;;;;;13.23;7.45;;;;;;;;;;5021200;28;20038;-72
2023/12/04 11:06:09;;;;;;;12.20;7.53;;;;;;;;;;5032242;28;20041;-72
2023/12/04 11:08:36;;;;;;;13.15;7.25;;;;;;;;;;5026623;28;20045;-72
2023/12/04 11:11:03;;;;;;;14.10;7.75;;;;;;;;;;5029829;28;20037;-72
2023/12/04 11:13:31;;;;;;;11.90;7.35;;;;;;;;;;5027768;28;20049;-72
2023/12/04 11:16:01;;;;;;;13.45;7.72;;;;;;;;;;5023611;28;20034;-72
2023/12/04 11:18:28;;;;;;;12.07;7.25;;;;;;;;;;5028093;28;20037;-72
2023/12/04 11:20:59;;;;;;;12.43;7.18;;;;;;;;;;5024810;28;20537;-72
2023/12/04 11:23:26;;;;;;;11.73;7.20;;;;;;;;;;5026752;28;20112;-72
2023/12/04 11:25:52;;;;;;;11.73;7.32;;;;;;;;;;5023081;28;20042;-72
2023/12/04 11:28:19;;;;;;;10.98;7.03;;;;;;;;;;5027326;28;20052;-72
2023/12/04 11:30:45;;;;;;;12.73;7.45;;;;;;;;;;5037848;28;20399;-71
2023/12/04 11:33:11;;;;;;;13.40;7.22;;;;;;;;;;5031068;28;20536;-71
2023/12/04 11:35:41;;;;;;;14.20;7.57;;;;;;;;;;5033942;28;20041;-71
2023/12/04 11:38:09;;;;;;;12.73;7.65;;;;;;;;;;5032604;28;20033;-71
2023/12/04 11:40:36;;;;;;;12.45;7.40;;;;;;;;;;5031752;28;20048;-71
2023/12/04 11:43:05;;;;;;;13.18;7.30;;;;;;;;;;5026498;28;20040;-71
2023/12/04 11:45:40;;;;;;;13.32;7.50;;;;;;;;;;5029796;28;20510;-71
2023/12/04 11:48:06;;;;;;;13.82;7.75;;;;;;;;;;5030254;28;20085;-71
2023/12/04 11:50:33;;;;;;;14.35;7.70;;;;;;;;;;5028428;28;20504;-71
2023/12/04 11:53:03;;;;;;;15.15;7.90;;;;;;;;;;5034039;28;20138;-71
2023/12/04 11:55:29;;;;;;;11.25;7.20;;;;;;;;;;5032997;28;20045;-71
2023/12/04 11:57:57;;;;;;;14.10;7.47;;;;;;;;;;5033414;28;20033;-71
2023/12/04 12:00:24;;;;;;;14.05;7.63;;;;;;;;;;5012651;28;20495;-71
2023/12/04 12:02:53;;;;;;;11.25;6.82;;;;;;;;;;5033377;28;20037;-71
2023/12/04 12:05:23;;;;;;;11.55;7.40;;;;;;;;;;5015273;28;20054;-71
2023/12/04 12:07:49;;;;;;;13.77;7.75;;;;;;;;;;5014964;28;20053;-71
2023/12/04 12:10:16;;;;;;;12.13;7.57;;;;;;;;;;5026211;28;20602;-71
2023/12/04 12:12:42;;;;;;;13.25;7.10;;;;;;;;;;5015316;28;20124;-71
2023/12/04 12:15:11;;;;;;;11.20;7.43;;;;;;;;;;5030516;28;20076;-71
2023/12/04 12:17:41;;;;;;;14.38;8.00;;;;;;;;;;5032191;28;20041;-71
2023/12/04 12:20:07;;;;;;;13.32;7.75;;;;;;;;;;5033058;28;20033;-71
2023/12/04 12:22:34;;;;;;;12.40;7.68;;;;;;;;;;5027008;28;20079;-71
2023/12/04 12:25:01;;;;;;;13.02;7.32;;;;;;;;;;5026722;28;20049;-71
2023/12/04 12:29:55;;;;;;;14.60;7.30;;;;;;;;;;5078637;28;20396;-70
2023/12/04 12:32:21;;;;;;;14.48;8.20;;;;;;;;;;5062221;28;20043;-70
2023/12/04 12:34:47;;;;;;;10.40;6.80;;;;;;;;;;5079942;28;20555;-69
2023/12/04 12:37:13;;;;;;;12.20;7.75;;;;;;;;;;5070476;28;20041;-69
2023/12/04 12:39:40;;;;;;;13.20;7.88;;;;;;;;;;5072698;28;20043;-70
2023/12/04 12:42:07;;;;;;;11.15;6.72;;;;;;;;;;5070948;28;20409;-70
2023/12/04 12:44:40;;;;;;;15.55;8.40;;;;;;;;;;5069995;28;20051;-70
2023/12/04 12:47:07;;;;;;;13.27;8.23;;;;;;;;;;5072441;28;20040;-70
2023/12/04 12:49:35;;;;;;;14.75;8.02;;;;;;;;;;5071057;28;20047;-70
2023/12/04 12:52:01;;;;;;;13.63;7.78;;;;;;;;;;5042485;28;20394;-70
2023/12/04 12:54:28;;;;;;;13.40;7.88;;;;;;;;;;5042345;28;20051;-71
2023/12/04 12:56:54;;;;;;;13.75;7.60;;;;;;;;;;5069642;28;20036;-70
2023/12/04 12:59:21;;;;;;;15.13;7.63;;;;;;;;;;5072389;28;20059;-70
2023/12/04 13:01:48;;;;;;;16.17;8.15;;;;;;;;;;5037560;28;20080;-70
2023/12/04 13:04:15;;;;;;;14.18;7.57;;;;;;;;;;5069518;28;20068;-70
2023/12/04 13:06:41;;;;;;;13.90;7.45;;;;;;;;;;5066404;28;20045;-70
2023/12/04 13:09:07;;;;;;;14.48;7.68;;;;;;;;;;5054381;28;20040;-70
2023/12/04 13:11:33;;;;;;;11.65;7.30;;;;;;;;;;5068926;28;20044;-70
2023/12/04 13:14:00;;;;;;;12.27;7.25;;;;;;;;;;5063908;28;20036;-70
2023/12/04 13:16:25;;;;;;;13.63;7.90;;;;;;;;;;5061816;28;20059;-70
2023/12/04 13:18:51;;;;;;;10.88;6.82;;;;;;;;;;5053418;28;20495;-70
2023/12/04 13:21:17;;;;;;;13.18;7.68;;;;;;;;;;5043529;28;20541;-70
2023/12/04 13:23:43;;;;;;;13.77;7.68;;;;;;;;;;5069351;28;20072;-70
2023/12/04 13:26:11;;;;;;;12.48;6.93;;;;;;;;;;5067576;28;20045;-70
2023/12/04 13:28:38;;;;;;;12.43;7.82;;;;;;;;;;5070881;28;20071;-70
2023/12/04 13:31:05;;;;;;;15.23;7.40;;;;;;;;;;5053373;28;20040;-70
2023/12/04 13:33:31;;;;;;;12.00;7.15;;;;;;;;;;5069643;28;20506;-70
2023/12/04 13:35:57;;;;;;;15.35;7.78;;;;;;;;;;5070463;28;20389;-69
2023/12/04 13:38:24;;;;;;;11.18;7.40;;;;;;;;;;5063894;28;20041;-70
2023/12/04 13:40:59;;;;;;;12.70;7.20;;;;;;;;;;5067641;28;20458;-70
2023/12/04 13:46:11;;;;;;;12.15;7.07;;;;;;;;;;5052801;28;20036;-70
2023/12/04 13:48:40;;;;;;;13.63;7.53;;;;;;;;;;5066504;28;20041;-70
2023/12/04 13:51:15;;;;;;;10.95;7.60;;;;;;;;;;5064086;28;20045;-69
2023/12/04 13:53:44;;;;;;;14.48;7.78;;;;;;;;;;5068765;28;20693;-69
2023/12/04 13:59:18;;;;;;;11.65;6.53;;;;;;;;;;5009417;28;20053;-70
2023/12/04 14:01:44;;;;;;;12.80;7.40;;;;;;;;;;5050786;28;20055;-70
2023/12/04 14:04:10;;;;;;;12.13;6.90;;;;;;;;;;5061993;28;20037;-70
2023/12/04 14:06:36;;;;;;;12.38;7.10;;;;;;;;;;5064720;28;20032;-70
2023/12/04 14:09:05;;;;;;;13.13;7.07;;;;;;;;;;5069824;28;20039;-70
2023/12/04 14:11:31;;;;;;;11.95;6.97;;;;;;;;;;5069117;28;20457;-70
2023/12/04 14:13:57;;;;;;;11.73;7.57;;;;;;;;;;5047517;28;20124;-70
2023/12/04 14:16:23;;;;;;;12.77;6.80;;;;;;;;;;5050828;28;20044;-70
2023/12/04 14:18:49;;;;;;;12.43;7.35;;;;;;;;;;5073495;28;20075;-70
2023/12/04 14:21:15;;;;;;;13.50;6.97;;;;;;;;;;5068904;28;20033;-70
2023/12/04 14:23:41;;;;;;;12.52;7.07;;;;;;;;;;5074147;28;20498;-70
2023/12/04 14:26:07;;;;;;;11.80;7.10;;;;;;;;;;5061399;28;20041;-70